Sedan, Kansas
Current Conditions -  °F | °C
As of 9:35 AM on Monday 22 Dec 2014 (Local Time) from KIDP Reporting Station
Haze Haze  
Wind Chill: 41°   Ceiling: 400
Heat Index: 45°   Visibility: 3mi
Dew Point: 45°   Wind: 7mph
Humidity: 100%   Direction: 170°S
Pressure: 29.58"   Gusts: NA
Location:  37.13°N, 96.19°W
Report Text: KIDP 221535Z AUTO 17006KT 3SM BR OVC004 07/07 A2958 RMK AO2
Loading
Personal Weather Stations






























Interactive Weather Map New forecast layout! Learn more

10-Day Weather Forecast

Advertisements
Track Severe Weather on mobile